sensor_id;sensor_type;location;lat;lon;timestamp;temperature;humidity
13850;DHT22;6995;52.618;13.488;2023-06-10T00:02:01;16.90;11.40
13850;DHT22;6995;52.618;13.488;2023-06-10T00:04:27;16.90;12.80
13850;DHT22;6995;52.618;13.488;2023-06-10T00:06:52;16.80;14.30
13850;DHT22;6995;52.618;13.488;2023-06-10T00:09:19;16.80;19.00
13850;DHT22;6995;52.618;13.488;2023-06-10T00:11:46;16.70;21.60
13850;DHT22;6995;52.618;13.488;2023-06-10T00:14:12;16.70;18.40
13850;DHT22;6995;52.618;13.488;2023-06-10T00:16:38;16.70;21.20
13850;DHT22;6995;52.618;13.488;2023-06-10T00:19:04;16.70;24.10
13850;DHT22;6995;52.618;13.488;2023-06-10T00:21:33;16.70;22.20
13850;DHT22;6995;52.618;13.488;2023-06-10T00:24:06;16.60;23.20
13850;DHT22;6995;52.618;13.488;2023-06-10T00:26:32;16.50;25.70
13850;DHT22;6995;52.618;13.488;2023-06-10T00:28:59;16.50;30.00
13850;DHT22;6995;52.618;13.488;2023-06-10T00:31:24;16.50;31.40
13850;DHT22;6995;52.618;13.488;2023-06-10T00:33:51;16.50;33.40
13850;DHT22;6995;52.618;13.488;2023-06-10T00:36:17;16.40;35.40
13850;DHT22;6995;52.618;13.488;2023-06-10T00:38:43;16.30;40.40
13850;DHT22;6995;52.618;13.488;2023-06-10T00:41:08;16.20;46.40
13850;DHT22;6995;52.618;13.488;2023-06-10T00:43:34;16.10;54.80
13850;DHT22;6995;52.618;13.488;2023-06-10T00:46:00;16.10;55.10
13850;DHT22;6995;52.618;13.488;2023-06-10T00:48:27;16.10;57.90
13850;DHT22;6995;52.618;13.488;2023-06-10T00:50:53;16.10;58.90
13850;DHT22;6995;52.618;13.488;2023-06-10T00:53:19;16.10;63.50
13850;DHT22;6995;52.618;13.488;2023-06-10T00:55:46;16.00;65.50
13850;DHT22;6995;52.618;13.488;2023-06-10T00:58:12;16.10;65.80
13850;DHT22;6995;52.618;13.488;2023-06-10T01:00:38;16.00;66.70
13850;DHT22;6995;52.618;13.488;2023-06-10T01:03:04;16.00;73.50
13850;DHT22;6995;52.618;13.488;2023-06-10T01:05:36;15.90;76.10
13850;DHT22;6995;52.618;13.488;2023-06-10T01:13:10;15.80;85.60
13850;DHT22;6995;52.618;13.488;2023-06-10T01:15:40;15.90;82.70
13850;DHT22;6995;52.618;13.488;2023-06-10T01:18:07;15.90;84.20
13850;DHT22;6995;52.618;13.488;2023-06-10T01:20:41;15.80;89.10
13850;DHT22;6995;52.618;13.488;2023-06-10T01:23:09;15.80;93.30
13850;DHT22;6995;52.618;13.488;2023-06-10T01:25:39;15.80;93.10
13850;DHT22;6995;52.618;13.488;2023-06-10T01:33:36;15.80;92.20
13850;DHT22;6995;52.618;13.488;2023-06-10T01:36:03;15.80;89.90
13850;DHT22;6995;52.618;13.488;2023-06-10T01:38:45;15.80;94.60
13850;DHT22;6995;52.618;13.488;2023-06-10T01:41:17;15.80;96.50
13850;DHT22;6995;52.618;13.488;2023-06-10T01:43:44;15.70;97.20
13850;DHT22;6995;52.618;13.488;2023-06-10T01:46:10;15.80;98.90
13850;DHT22;6995;52.618;13.488;2023-06-10T01:48:37;15.70;99.70
13850;DHT22;6995;52.618;13.488;2023-06-10T01:51:03;15.70;99.90
13850;DHT22;6995;52.618;13.488;2023-06-10T01:53:29;15.70;99.90
13850;DHT22;6995;52.618;13.488;2023-06-10T01:55:55;15.70;99.90
13850;DHT22;6995;52.618;13.488;2023-06-10T01:58:30;15.70;99.90
13850;DHT22;6995;52.618;13.488;2023-06-10T02:00:56;15.70;99.90
13850;DHT22;6995;52.618;13.488;2023-06-10T02:03:21;15.70;99.90
13850;DHT22;6995;52.618;13.488;2023-06-10T02:05:47;15.60;99.90
13850;DHT22;6995;52.618;13.488;2023-06-10T02:08:13;15.60;99.90
13850;DHT22;6995;52.618;13.488;2023-06-10T02:10:38;15.60;99.90
13850;DHT22;6995;52.618;13.488;2023-06-10T02:13:04;15.50;99.90
13850;DHT22;6995;52.618;13.488;2023-06-10T02:15:30;15.50;99.90
13850;DHT22;6995;52.618;13.488;2023-06-10T02:17:55;15.50;99.90
13850;DHT22;6995;52.618;13.488;2023-06-10T02:20:22;15.40;99.90
13850;DHT22;6995;52.618;13.488;2023-06-10T02:22:47;15.40;99.90
13850;DHT22;6995;52.618;13.488;2023-06-10T02:25:13;15.40;99.90
13850;DHT22;6995;52.618;13.488;2023-06-10T02:27:39;15.40;99.90
13850;DHT22;6995;52.618;13.488;2023-06-10T02:30:05;15.30;99.90
13850;DHT22;6995;52.618;13.488;2023-06-10T02:32:31;15.30;99.90
13850;DHT22;6995;52.618;13.488;2023-06-10T02:34:56;15.20;99.90
13850;DHT22;6995;52.618;13.488;2023-06-10T02:37:23;15.20;99.90
13850;DHT22;6995;52.618;13.488;2023-06-10T02:39:48;15.30;99.90
13850;DHT22;6995;52.618;13.488;2023-06-10T02:42:14;15.30;99.90
13850;DHT22;6995;52.618;13.488;2023-06-10T02:44:40;15.20;99.90
13850;DHT22;6995;52.618;13.488;2023-06-10T02:47:05;15.30;99.90
13850;DHT22;6995;52.618;13.488;2023-06-10T02:49:31;15.30;99.90
13850;DHT22;6995;52.618;13.488;2023-06-10T02:51:57;15.30;99.90
13850;DHT22;6995;52.618;13.488;2023-06-10T02:54:23;15.20;99.90
13850;DHT22;6995;52.618;13.488;2023-06-10T02:56:49;15.20;99.90
13850;DHT22;6995;52.618;13.488;2023-06-10T02:59:15;15.20;99.90
13850;DHT22;6995;52.618;13.488;2023-06-10T03:01:41;15.20;99.90
13850;DHT22;6995;52.618;13.488;2023-06-10T03:04:07;15.20;99.90
13850;DHT22;6995;52.618;13.488;2023-06-10T03:06:32;15.20;99.90
13850;DHT22;6995;52.618;13.488;2023-06-10T03:09:02;15.30;99.90
13850;DHT22;6995;52.618;13.488;2023-06-10T03:11:29;15.30;99.90
13850;DHT22;6995;52.618;13.488;2023-06-10T03:13:55;15.30;99.90
13850;DHT22;6995;52.618;13.488;2023-06-10T03:16:21;15.30;99.90
13850;DHT22;6995;52.618;13.488;2023-06-10T03:18:48;15.30;99.90
13850;DHT22;6995;52.618;13.488;2023-06-10T03:21:14;15.30;99.90
13850;DHT22;6995;52.618;13.488;2023-06-10T03:23:40;15.40;99.90
13850;DHT22;6995;52.618;13.488;2023-06-10T03:26:06;15.40;99.90
13850;DHT22;6995;52.618;13.488;2023-06-10T03:28:31;15.40;99.90
13850;DHT22;6995;52.618;13.488;2023-06-10T03:30:57;15.50;99.90
13850;DHT22;6995;52.618;13.488;2023-06-10T03:33:23;15.40;99.90
13850;DHT22;6995;52.618;13.488;2023-06-10T03:35:49;15.40;99.90
13850;DHT22;6995;52.618;13.488;2023-06-10T03:38:15;15.30;99.90
13850;DHT22;6995;52.618;13.488;2023-06-10T03:40:40;15.40;99.90
13850;DHT22;6995;52.618;13.488;2023-06-10T03:43:06;15.40;99.90
13850;DHT22;6995;52.618;13.488;2023-06-10T03:45:32;15.50;99.90
13850;DHT22;6995;52.618;13.488;2023-06-10T03:47:58;15.50;99.90
13850;DHT22;6995;52.618;13.488;2023-06-10T03:50:23;15.60;99.90
13850;DHT22;6995;52.618;13.488;2023-06-10T03:52:50;15.50;99.90
13850;DHT22;6995;52.618;13.488;2023-06-10T03:55:16;15.60;99.90
13850;DHT22;6995;52.618;13.488;2023-06-10T03:57:42;15.60;99.90
13850;DHT22;6995;52.618;13.488;2023-06-10T04:00:09;15.60;99.90
13850;DHT22;6995;52.618;13.488;2023-06-10T04:02:38;15.60;99.90
13850;DHT22;6995;52.618;13.488;2023-06-10T04:05:11;15.60;99.90
13850;DHT22;6995;52.618;13.488;2023-06-10T04:07:37;15.70;99.90
13850;DHT22;6995;52.618;13.488;2023-06-10T04:10:05;15.70;99.90
13850;DHT22;6995;52.618;13.488;2023-06-10T04:12:31;15.80;99.90
13850;DHT22;6995;52.618;13.488;2023-06-10T04:14:57;15.90;99.90
13850;DHT22;6995;52.618;13.488;2023-06-10T04:17:22;15.90;99.90
13850;DHT22;6995;52.618;13.488;2023-06-10T04:19:48;16.00;99.90
13850;DHT22;6995;52.618;13.488;2023-06-10T04:22:13;16.00;99.90
13850;DHT22;6995;52.618;13.488;2023-06-10T04:24:39;16.10;99.90
13850;DHT22;6995;52.618;13.488;2023-06-10T04:27:05;16.10;99.90
13850;DHT22;6995;52.618;13.488;2023-06-10T04:29:31;16.20;97.70
13850;DHT22;6995;52.618;13.488;2023-06-10T04:31:56;16.20;94.70
13850;DHT22;6995;52.618;13.488;2023-06-10T04:34:22;16.30;92.10
13850;DHT22;6995;52.618;13.488;2023-06-10T04:36:48;16.30;91.80
13850;DHT22;6995;52.618;13.488;2023-06-10T04:39:14;16.40;87.90
13850;DHT22;6995;52.618;13.488;2023-06-10T04:41:43;16.50;80.40
13850;DHT22;6995;52.618;13.488;2023-06-10T04:44:08;16.40;80.10
13850;DHT22;6995;52.618;13.488;2023-06-10T04:46:34;16.40;80.80
13850;DHT22;6995;52.618;13.488;2023-06-10T04:48:59;16.50;78.80
13850;DHT22;6995;52.618;13.488;2023-06-10T04:51:25;16.50;80.30
13850;DHT22;6995;52.618;13.488;2023-06-10T04:53:51;16.60;77.30
13850;DHT22;6995;52.618;13.488;2023-06-10T04:56:17;16.60;73.00
13850;DHT22;6995;52.618;13.488;2023-06-10T04:58:43;16.70;70.30
13850;DHT22;6995;52.618;13.488;2023-06-10T05:01:09;16.80;66.70
13850;DHT22;6995;52.618;13.488;2023-06-10T05:03:34;16.80;61.30
13850;DHT22;6995;52.618;13.488;2023-06-10T05:06:00;16.90;60.50
13850;DHT22;6995;52.618;13.488;2023-06-10T05:08:26;16.90;59.30
13850;DHT22;6995;52.618;13.488;2023-06-10T05:10:51;17.10;54.80
13850;DHT22;6995;52.618;13.488;2023-06-10T05:13:17;17.30;45.30
13850;DHT22;6995;52.618;13.488;2023-06-10T05:15:43;17.50;67.40
13850;DHT22;6995;52.618;13.488;2023-06-10T05:18:10;17.60;33.60
13850;DHT22;6995;52.618;13.488;2023-06-10T05:20:38;17.60;30.00
13850;DHT22;6995;52.618;13.488;2023-06-10T05:23:03;17.70;27.70
13850;DHT22;6995;52.618;13.488;2023-06-10T05:25:33;17.80;26.70
13850;DHT22;6995;52.618;13.488;2023-06-10T05:27:59;17.80;23.20
13850;DHT22;6995;52.618;13.488;2023-06-10T05:30:24;18.00;21.30
13850;DHT22;6995;52.618;13.488;2023-06-10T05:32:51;18.30;14.60
13850;DHT22;6995;52.618;13.488;2023-06-10T05:35:18;18.40;12.50
13850;DHT22;6995;52.618;13.488;2023-06-10T05:37:43;18.50;5.50
13850;DHT22;6995;52.618;13.488;2023-06-10T05:40:10;18.60;4.60
13850;DHT22;6995;52.618;13.488;2023-06-10T05:42:36;18.60;3.10
13850;DHT22;6995;52.618;13.488;2023-06-10T05:45:02;18.60;1.00
13850;DHT22;6995;52.618;13.488;2023-06-10T05:47:28;18.60;1.00
13850;DHT22;6995;52.618;13.488;2023-06-10T05:49:53;18.70;1.00
13850;DHT22;6995;52.618;13.488;2023-06-10T05:52:19;18.80;1.00
13850;DHT22;6995;52.618;13.488;2023-06-10T05:54:45;18.70;1.00
13850;DHT22;6995;52.618;13.488;2023-06-10T05:57:10;18.80;1.00
13850;DHT22;6995;52.618;13.488;2023-06-10T05:59:36;18.90;1.00
13850;DHT22;6995;52.618;13.488;2023-06-10T06:02:02;18.90;1.00
13850;DHT22;6995;52.618;13.488;2023-06-10T06:04:27;18.90;1.00
13850;DHT22;6995;52.618;13.488;2023-06-10T06:06:53;18.90;1.00
13850;DHT22;6995;52.618;13.488;2023-06-10T06:09:19;18.90;14.60
13850;DHT22;6995;52.618;13.488;2023-06-10T06:11:44;19.00;1.00
13850;DHT22;6995;52.618;13.488;2023-06-10T06:14:10;18.90;1.00
13850;DHT22;6995;52.618;13.488;2023-06-10T06:16:36;19.00;1.00
13850;DHT22;6995;52.618;13.488;2023-06-10T06:19:01;19.10;1.00
13850;DHT22;6995;52.618;13.488;2023-06-10T06:21:27;19.10;1.00
13850;DHT22;6995;52.618;13.488;2023-06-10T06:23:52;19.20;1.00
13850;DHT22;6995;52.618;13.488;2023-06-10T06:26:18;19.50;1.00
13850;DHT22;6995;52.618;13.488;2023-06-10T06:28:43;19.60;1.00
13850;DHT22;6995;52.618;13.488;2023-06-10T06:31:09;19.90;1.00
13850;DHT22;6995;52.618;13.488;2023-06-10T06:33:35;20.00;1.00
13850;DHT22;6995;52.618;13.488;2023-06-10T06:36:01;20.10;1.00
13850;DHT22;6995;52.618;13.488;2023-06-10T06:38:26;20.40;1.00
13850;DHT22;6995;52.618;13.488;2023-06-10T06:40:52;20.80;1.00
13850;DHT22;6995;52.618;13.488;2023-06-10T06:43:18;21.20;1.00
13850;DHT22;6995;52.618;13.488;2023-06-10T06:45:47;21.60;1.00
13850;DHT22;6995;52.618;13.488;2023-06-10T06:48:12;21.90;1.00
13850;DHT22;6995;52.618;13.488;2023-06-10T06:50:38;22.20;1.00
13850;DHT22;6995;52.618;13.488;2023-06-10T06:53:04;22.40;1.00
13850;DHT22;6995;52.618;13.488;2023-06-10T06:55:30;22.40;1.00
13850;DHT22;6995;52.618;13.488;2023-06-10T06:57:55;22.70;1.00
13850;DHT22;6995;52.618;13.488;2023-06-10T07:00:21;22.90;1.00
13850;DHT22;6995;52.618;13.488;2023-06-10T07:02:48;23.00;1.00
13850;DHT22;6995;52.618;13.488;2023-06-10T07:05:13;23.10;1.00
13850;DHT22;6995;52.618;13.488;2023-06-10T07:07:39;23.40;1.00
13850;DHT22;6995;52.618;13.488;2023-06-10T07:10:05;23.60;1.00
13850;DHT22;6995;52.618;13.488;2023-06-10T07:12:31;23.30;1.00
13850;DHT22;6995;52.618;13.488;2023-06-10T07:14:56;23.20;1.00
13850;DHT22;6995;52.618;13.488;2023-06-10T07:17:22;23.00;1.00
13850;DHT22;6995;52.618;13.488;2023-06-10T07:19:47;23.00;1.00
13850;DHT22;6995;52.618;13.488;2023-06-10T07:22:14;22.90;1.00
13850;DHT22;6995;52.618;13.488;2023-06-10T07:24:40;22.60;1.00
13850;DHT22;6995;52.618;13.488;2023-06-10T07:27:06;22.60;1.00
13850;DHT22;6995;52.618;13.488;2023-06-10T07:29:32;22.90;1.00
13850;DHT22;6995;52.618;13.488;2023-06-10T07:31:58;23.00;1.00
13850;DHT22;6995;52.618;13.488;2023-06-10T07:34:23;22.60;1.00
13850;DHT22;6995;52.618;13.488;2023-06-10T07:36:49;22.30;1.00
13850;DHT22;6995;52.618;13.488;2023-06-10T07:39:15;22.10;1.00
13850;DHT22;6995;52.618;13.488;2023-06-10T07:41:40;22.10;1.00
13850;DHT22;6995;52.618;13.488;2023-06-10T07:44:06;22.20;1.00
13850;DHT22;6995;52.618;13.488;2023-06-10T07:46:31;22.40;1.00
13850;DHT22;6995;52.618;13.488;2023-06-10T07:48:57;22.70;1.00
13850;DHT22;6995;52.618;13.488;2023-06-10T07:51:23;23.00;1.00
13850;DHT22;6995;52.618;13.488;2023-06-10T07:53:48;23.00;1.00
13850;DHT22;6995;52.618;13.488;2023-06-10T07:56:14;23.20;1.00
13850;DHT22;6995;52.618;13.488;2023-06-10T07:58:40;23.50;1.00
13850;DHT22;6995;52.618;13.488;2023-06-10T08:01:05;23.90;1.00
13850;DHT22;6995;52.618;13.488;2023-06-10T08:03:32;23.90;1.00
13850;DHT22;6995;52.618;13.488;2023-06-10T08:05:57;23.50;1.00
13850;DHT22;6995;52.618;13.488;2023-06-10T08:08:23;23.00;1.00
13850;DHT22;6995;52.618;13.488;2023-06-10T08:10:48;22.80;1.00
13850;DHT22;6995;52.618;13.488;2023-06-10T08:13:15;22.50;1.00
13850;DHT22;6995;52.618;13.488;2023-06-10T08:15:40;22.20;1.00
13850;DHT22;6995;52.618;13.488;2023-06-10T08:18:06;22.10;1.00
13850;DHT22;6995;52.618;13.488;2023-06-10T08:20:31;22.00;1.00
13850;DHT22;6995;52.618;13.488;2023-06-10T08:22:57;21.90;1.00
13850;DHT22;6995;52.618;13.488;2023-06-10T08:25:23;21.90;1.00
13850;DHT22;6995;52.618;13.488;2023-06-10T08:27:49;22.00;1.00
13850;DHT22;6995;52.618;13.488;2023-06-10T08:30:16;22.20;1.00
13850;DHT22;6995;52.618;13.488;2023-06-10T08:32:41;22.40;1.00
13850;DHT22;6995;52.618;13.488;2023-06-10T08:35:07;22.40;1.00
13850;DHT22;6995;52.618;13.488;2023-06-10T08:37:33;22.30;1.00
13850;DHT22;6995;52.618;13.488;2023-06-10T08:39:59;22.10;1.00
13850;DHT22;6995;52.618;13.488;2023-06-10T08:42:28;22.10;1.00
13850;DHT22;6995;52.618;13.488;2023-06-10T08:44:55;22.00;1.00
13850;DHT22;6995;52.618;13.488;2023-06-10T08:47:23;21.90;1.00
13850;DHT22;6995;52.618;13.488;2023-06-10T08:49:49;21.90;1.00
13850;DHT22;6995;52.618;13.488;2023-06-10T08:52:17;22.00;1.00
13850;DHT22;6995;52.618;13.488;2023-06-10T08:54:53;22.00;1.00
13850;DHT22;6995;52.618;13.488;2023-06-10T08:57:20;21.80;1.00
13850;DHT22;6995;52.618;13.488;2023-06-10T08:59:48;21.60;1.00
13850;DHT22;6995;52.618;13.488;2023-06-10T09:02:14;21.40;1.00
13850;DHT22;6995;52.618;13.488;2023-06-10T09:04:42;21.40;1.00
13850;DHT22;6995;52.618;13.488;2023-06-10T09:07:09;21.20;1.00
13850;DHT22;6995;52.618;13.488;2023-06-10T09:09:36;21.10;1.00
13850;DHT22;6995;52.618;13.488;2023-06-10T09:12:03;21.10;1.00
13850;DHT22;6995;52.618;13.488;2023-06-10T09:14:29;21.10;1.00
13850;DHT22;6995;52.618;13.488;2023-06-10T09:16:55;20.90;1.00
13850;DHT22;6995;52.618;13.488;2023-06-10T09:19:25;20.90;1.00
13850;DHT22;6995;52.618;13.488;2023-06-10T09:21:52;20.90;1.00
13850;DHT22;6995;52.618;13.488;2023-06-10T09:24:18;21.00;1.00
13850;DHT22;6995;52.618;13.488;2023-06-10T09:26:44;21.00;1.00
13850;DHT22;6995;52.618;13.488;2023-06-10T09:29:11;21.00;1.00
13850;DHT22;6995;52.618;13.488;2023-06-10T09:31:39;21.00;1.00
13850;DHT22;6995;52.618;13.488;2023-06-10T09:34:12;21.00;1.00
13850;DHT22;6995;52.618;13.488;2023-06-10T09:36:39;21.20;1.00
13850;DHT22;6995;52.618;13.488;2023-06-10T09:39:05;21.40;1.00
13850;DHT22;6995;52.618;13.488;2023-06-10T09:41:41;21.60;1.00
13850;DHT22;6995;52.618;13.488;2023-06-10T09:44:29;21.70;1.00
13850;DHT22;6995;52.618;13.488;2023-06-10T09:46:56;21.90;1.00
13850;DHT22;6995;52.618;13.488;2023-06-10T09:49:28;22.10;1.00
13850;DHT22;6995;52.618;13.488;2023-06-10T09:51:55;22.20;1.00
13850;DHT22;6995;52.618;13.488;2023-06-10T09:54:21;22.30;1.00
13850;DHT22;6995;52.618;13.488;2023-06-10T09:56:48;22.50;1.00
13850;DHT22;6995;52.618;13.488;2023-06-10T09:59:15;22.60;1.00
13850;DHT22;6995;52.618;13.488;2023-06-10T10:01:41;22.70;1.00
13850;DHT22;6995;52.618;13.488;2023-06-10T10:04:07;22.70;1.00
13850;DHT22;6995;52.618;13.488;2023-06-10T10:06:34;22.60;1.00
13850;DHT22;6995;52.618;13.488;2023-06-10T10:09:00;22.60;1.00
13850;DHT22;6995;52.618;13.488;2023-06-10T10:11:26;22.40;1.00
13850;DHT22;6995;52.618;13.488;2023-06-10T10:13:53;22.30;1.00
13850;DHT22;6995;52.618;13.488;2023-06-10T10:16:29;22.20;1.00
13850;DHT22;6995;52.618;13.488;2023-06-10T10:18:57;21.90;1.00
13850;DHT22;6995;52.618;13.488;2023-06-10T10:21:33;21.80;1.00
13850;DHT22;6995;52.618;13.488;2023-06-10T10:24:17;21.60;1.00
13850;DHT22;6995;52.618;13.488;2023-06-10T10:26:46;21.40;1.00
13850;DHT22;6995;52.618;13.488;2023-06-10T10:29:24;21.20;2.00
13850;DHT22;6995;52.618;13.488;2023-06-10T10:31:51;21.00;1.00
13850;DHT22;6995;52.618;13.488;2023-06-10T10:34:30;20.90;1.00
13850;DHT22;6995;52.618;13.488;2023-06-10T10:37:01;20.70;1.00
13850;DHT22;6995;52.618;13.488;2023-06-10T10:39:27;20.70;1.00
13850;DHT22;6995;52.618;13.488;2023-06-10T10:41:55;20.50;1.00
13850;DHT22;6995;52.618;13.488;2023-06-10T10:44:21;20.20;1.00
13850;DHT22;6995;52.618;13.488;2023-06-10T10:46:59;19.70;16.10
13850;DHT22;6995;52.618;13.488;2023-06-10T10:49:32;19.20;34.50
13850;DHT22;6995;52.618;13.488;2023-06-10T10:52:02;18.90;35.70
13850;DHT22;6995;52.618;13.488;2023-06-10T10:54:43;18.80;1.00
13850;DHT22;6995;52.618;13.488;2023-06-10T10:57:19;18.80;1.00
13850;DHT22;6995;52.618;13.488;2023-06-10T10:59:55;19.00;18.30
13850;DHT22;6995;52.618;13.488;2023-06-10T11:05:04;19.80;81.40
13850;DHT22;6995;52.618;13.488;2023-06-10T11:07:32;20.10;53.80
13850;DHT22;6995;52.618;13.488;2023-06-10T11:10:02;20.50;49.90
13850;DHT22;6995;52.618;13.488;2023-06-10T11:15:10;21.00;46.30
13850;DHT22;6995;52.618;13.488;2023-06-10T11:23:33;21.90;29.20
13850;DHT22;6995;52.618;13.488;2023-06-10T11:26:29;22.70;24.80
13850;DHT22;6995;52.618;13.488;2023-06-10T11:31:32;23.70;1.00
13850;DHT22;6995;52.618;13.488;2023-06-10T11:34:02;24.20;1.00
13850;DHT22;6995;52.618;13.488;2023-06-10T11:36:39;24.30;1.00
13850;DHT22;6995;52.618;13.488;2023-06-10T11:39:10;24.60;1.00
13850;DHT22;6995;52.618;13.488;2023-06-10T11:41:38;24.80;1.00
13850;DHT22;6995;52.618;13.488;2023-06-10T11:44:08;24.90;1.00
13850;DHT22;6995;52.618;13.488;2023-06-10T11:46:34;25.20;1.00
13850;DHT22;6995;52.618;13.488;2023-06-10T11:49:01;25.70;1.00
13850;DHT22;6995;52.618;13.488;2023-06-10T11:51:31;26.70;1.00
13850;DHT22;6995;52.618;13.488;2023-06-10T11:53:57;26.90;1.00
13850;DHT22;6995;52.618;13.488;2023-06-10T11:56:25;27.50;1.00
13850;DHT22;6995;52.618;13.488;2023-06-10T11:58:59;27.60;1.00
13850;DHT22;6995;52.618;13.488;2023-06-10T12:01:34;28.20;1.00
13850;DHT22;6995;52.618;13.488;2023-06-10T12:04:07;28.90;1.00
13850;DHT22;6995;52.618;13.488;2023-06-10T12:09:23;28.10;1.00
13850;DHT22;6995;52.618;13.488;2023-06-10T12:12:11;27.70;1.00
13850;DHT22;6995;52.618;13.488;2023-06-10T12:14:54;27.70;1.00
13850;DHT22;6995;52.618;13.488;2023-06-10T12:20:00;28.80;1.00
13850;DHT22;6995;52.618;13.488;2023-06-10T12:22:26;29.00;1.00
13850;DHT22;6995;52.618;13.488;2023-06-10T12:25:03;29.30;1.00
13850;DHT22;6995;52.618;13.488;2023-06-10T12:27:32;30.20;1.00
13850;DHT22;6995;52.618;13.488;2023-06-10T12:29:59;30.80;1.00
13850;DHT22;6995;52.618;13.488;2023-06-10T12:32:46;31.10;1.00
13850;DHT22;6995;52.618;13.488;2023-06-10T12:35:19;31.30;1.00
13850;DHT22;6995;52.618;13.488;2023-06-10T12:38:04;31.70;1.00
13850;DHT22;6995;52.618;13.488;2023-06-10T12:40:37;32.00;1.00
13850;DHT22;6995;52.618;13.488;2023-06-10T12:43:06;32.50;1.00
13850;DHT22;6995;52.618;13.488;2023-06-10T12:48:09;32.50;1.00
13850;DHT22;6995;52.618;13.488;2023-06-10T12:50:36;32.50;1.00
13850;DHT22;6995;52.618;13.488;2023-06-10T12:53:04;32.90;1.00
13850;DHT22;6995;52.618;13.488;2023-06-10T12:55:31;33.10;1.00
13850;DHT22;6995;52.618;13.488;2023-06-10T12:57:58;32.70;1.00
13850;DHT22;6995;52.618;13.488;2023-06-10T13:00:24;32.90;1.00
13850;DHT22;6995;52.618;13.488;2023-06-10T13:02:55;33.10;1.00
13850;DHT22;6995;52.618;13.488;2023-06-10T13:05:21;33.50;1.00
13850;DHT22;6995;52.618;13.488;2023-06-10T13:07:49;32.90;1.00
13850;DHT22;6995;52.618;13.488;2023-06-10T13:10:16;33.10;1.00
13850;DHT22;6995;52.618;13.488;2023-06-10T13:12:45;33.10;1.00
13850;DHT22;6995;52.618;13.488;2023-06-10T13:15:12;33.40;1.00
13850;DHT22;6995;52.618;13.488;2023-06-10T13:17:38;33.50;1.00
13850;DHT22;6995;52.618;13.488;2023-06-10T13:20:05;34.10;1.00
13850;DHT22;6995;52.618;13.488;2023-06-10T13:22:34;33.90;1.00
13850;DHT22;6995;52.618;13.488;2023-06-10T13:25:05;33.70;1.00
13850;DHT22;6995;52.618;13.488;2023-06-10T13:27:34;33.30;1.00
13850;DHT22;6995;52.618;13.488;2023-06-10T13:30:00;33.50;1.00
13850;DHT22;6995;52.618;13.488;2023-06-10T13:32:26;33.70;1.00
13850;DHT22;6995;52.618;13.488;2023-06-10T13:34:51;34.10;1.00
13850;DHT22;6995;52.618;13.488;2023-06-10T13:37:19;34.70;1.00
13850;DHT22;6995;52.618;13.488;2023-06-10T13:39:45;34.90;1.00
13850;DHT22;6995;52.618;13.488;2023-06-10T13:42:17;35.00;1.00
13850;DHT22;6995;52.618;13.488;2023-06-10T13:44:43;34.20;1.00
13850;DHT22;6995;52.618;13.488;2023-06-10T13:47:08;34.00;1.00
13850;DHT22;6995;52.618;13.488;2023-06-10T13:49:34;34.70;1.00
13850;DHT22;6995;52.618;13.488;2023-06-10T13:52:00;35.70;1.00
13850;DHT22;6995;52.618;13.488;2023-06-10T13:54:25;35.90;1.00
13850;DHT22;6995;52.618;13.488;2023-06-10T13:56:52;35.70;1.00
13850;DHT22;6995;52.618;13.488;2023-06-10T13:59:19;35.90;1.00
13850;DHT22;6995;52.618;13.488;2023-06-10T14:01:45;35.90;1.00
13850;DHT22;6995;52.618;13.488;2023-06-10T14:04:11;36.10;1.00
13850;DHT22;6995;52.618;13.488;2023-06-10T14:06:36;36.20;1.00
13850;DHT22;6995;52.618;13.488;2023-06-10T14:09:02;36.00;1.00
13850;DHT22;6995;52.618;13.488;2023-06-10T14:11:28;36.70;1.00
13850;DHT22;6995;52.618;13.488;2023-06-10T14:13:53;36.90;1.00
13850;DHT22;6995;52.618;13.488;2023-06-10T14:16:21;36.90;1.00
13850;DHT22;6995;52.618;13.488;2023-06-10T14:18:47;36.20;1.00
13850;DHT22;6995;52.618;13.488;2023-06-10T14:21:13;36.20;1.00
13850;DHT22;6995;52.618;13.488;2023-06-10T14:23:38;35.60;1.00
13850;DHT22;6995;52.618;13.488;2023-06-10T14:26:04;36.10;1.00
13850;DHT22;6995;52.618;13.488;2023-06-10T14:28:32;36.60;1.00
13850;DHT22;6995;52.618;13.488;2023-06-10T14:30:58;37.60;1.00
13850;DHT22;6995;52.618;13.488;2023-06-10T14:33:23;37.70;1.00
13850;DHT22;6995;52.618;13.488;2023-06-10T14:35:49;38.20;1.00
13850;DHT22;6995;52.618;13.488;2023-06-10T14:38:15;37.70;1.00
13850;DHT22;6995;52.618;13.488;2023-06-10T14:40:46;37.40;1.00
13850;DHT22;6995;52.618;13.488;2023-06-10T14:43:12;38.00;1.00
13850;DHT22;6995;52.618;13.488;2023-06-10T14:45:39;37.80;1.00
13850;DHT22;6995;52.618;13.488;2023-06-10T14:48:06;38.40;1.00
13850;DHT22;6995;52.618;13.488;2023-06-10T14:50:32;38.70;1.00
13850;DHT22;6995;52.618;13.488;2023-06-10T14:53:01;38.60;1.00
13850;DHT22;6995;52.618;13.488;2023-06-10T14:55:27;38.30;1.00
13850;DHT22;6995;52.618;13.488;2023-06-10T14:57:52;36.70;1.00
13850;DHT22;6995;52.618;13.488;2023-06-10T15:00:18;35.70;1.00
13850;DHT22;6995;52.618;13.488;2023-06-10T15:02:49;35.40;1.00
13850;DHT22;6995;52.618;13.488;2023-06-10T15:05:15;36.40;1.00
13850;DHT22;6995;52.618;13.488;2023-06-10T15:07:41;35.70;1.00
13850;DHT22;6995;52.618;13.488;2023-06-10T15:10:07;34.90;1.00
13850;DHT22;6995;52.618;13.488;2023-06-10T15:12:33;34.20;1.00
13850;DHT22;6995;52.618;13.488;2023-06-10T15:14:59;33.30;1.00
13850;DHT22;6995;52.618;13.488;2023-06-10T15:17:25;32.80;1.00
13850;DHT22;6995;52.618;13.488;2023-06-10T15:19:50;32.60;1.00
13850;DHT22;6995;52.618;13.488;2023-06-10T15:22:16;32.50;1.00
13850;DHT22;6995;52.618;13.488;2023-06-10T15:24:42;32.20;1.00
13850;DHT22;6995;52.618;13.488;2023-06-10T15:27:08;31.80;1.00
13850;DHT22;6995;52.618;13.488;2023-06-10T15:29:34;31.60;1.00
13850;DHT22;6995;52.618;13.488;2023-06-10T15:31:59;31.60;1.00
13850;DHT22;6995;52.618;13.488;2023-06-10T15:34:25;31.90;1.00
13850;DHT22;6995;52.618;13.488;2023-06-10T15:36:51;31.90;1.00
13850;DHT22;6995;52.618;13.488;2023-06-10T15:39:16;32.20;1.00
13850;DHT22;6995;52.618;13.488;2023-06-10T15:41:44;32.60;1.00
13850;DHT22;6995;52.618;13.488;2023-06-10T15:44:09;33.10;1.00
13850;DHT22;6995;52.618;13.488;2023-06-10T15:46:35;33.20;1.00
13850;DHT22;6995;52.618;13.488;2023-06-10T15:49:01;33.00;1.00
13850;DHT22;6995;52.618;13.488;2023-06-10T15:51:26;33.20;1.00
13850;DHT22;6995;52.618;13.488;2023-06-10T15:53:52;32.50;1.00
13850;DHT22;6995;52.618;13.488;2023-06-10T15:56:18;32.40;1.00
13850;DHT22;6995;52.618;13.488;2023-06-10T15:58:44;33.10;1.00
13850;DHT22;6995;52.618;13.488;2023-06-10T16:01:10;34.80;1.00
13850;DHT22;6995;52.618;13.488;2023-06-10T16:03:37;35.20;1.00
13850;DHT22;6995;52.618;13.488;2023-06-10T16:06:03;34.40;1.00
13850;DHT22;6995;52.618;13.488;2023-06-10T16:08:28;35.00;1.00
13850;DHT22;6995;52.618;13.488;2023-06-10T16:10:54;36.20;1.00
13850;DHT22;6995;52.618;13.488;2023-06-10T16:13:19;36.50;1.00